sensor_id;sensor_type;location;lat;lon;timestamp;pressure;altitude;pressure_sealevel;temperature;humidity
61961;BME280;47923;42.506;24.192;2023-02-12T00:01:29;96370.50;;;-0.92;46.99
61961;BME280;47923;42.506;24.192;2023-02-12T00:03:55;96239.88;;;-1.75;47.58
61961;BME280;47923;42.506;24.192;2023-02-12T00:06:21;96357.72;;;-1.05;47.91
61961;BME280;47923;42.506;24.192;2023-02-12T00:08:51;96253.66;;;-1.73;48.64
61961;BME280;47923;42.506;24.192;2023-02-12T00:11:19;96198.13;;;-2.20;48.34
61961;BME280;47923;42.506;24.192;2023-02-12T00:13:45;96292.63;;;-1.69;48.84
61961;BME280;47923;42.506;24.192;2023-02-12T00:16:14;96359.28;;;-1.29;49.02
61961;BME280;47923;42.506;24.192;2023-02-12T00:18:40;96340.16;;;-1.36;49.15
61961;BME280;47923;42.506;24.192;2023-02-12T00:21:06;96347.59;;;-1.38;49.31
61961;BME280;47923;42.506;24.192;2023-02-12T00:23:35;96298.94;;;-1.70;48.99
61961;BME280;47923;42.506;24.192;2023-02-12T00:26:05;96072.03;;;-3.15;49.80
61961;BME280;47923;42.506;24.192;2023-02-12T00:28:30;95986.88;;;-3.74;49.89
61961;BME280;47923;42.506;24.192;2023-02-12T00:30:56;96352.59;;;-1.42;49.66
61961;BME280;47923;42.506;24.192;2023-02-12T00:33:21;95998.50;;;-3.70;49.85
61961;BME280;47923;42.506;24.192;2023-02-12T00:35:57;96361.88;;;-1.45;49.79
61961;BME280;47923;42.506;24.192;2023-02-12T00:38:22;96173.91;;;-2.55;50.23
61961;BME280;47923;42.506;24.192;2023-02-12T00:40:48;96282.25;;;-1.70;50.04
61961;BME280;47923;42.506;24.192;2023-02-12T00:43:13;96352.09;;;-1.39;50.18
61961;BME280;47923;42.506;24.192;2023-02-12T00:45:39;96129.88;;;-2.76;49.96
61961;BME280;47923;42.506;24.192;2023-02-12T00:48:04;96317.81;;;-1.61;49.99
61961;BME280;47923;42.506;24.192;2023-02-12T00:50:29;96347.56;;;-1.33;50.50
61961;BME280;47923;42.506;24.192;2023-02-12T00:52:55;96351.28;;;-1.34;50.37
61961;BME280;47923;42.506;24.192;2023-02-12T00:55:20;96355.00;;;-1.35;50.60
61961;BME280;47923;42.506;24.192;2023-02-12T00:57:46;96348.09;;;-1.42;50.80
61961;BME280;47923;42.506;24.192;2023-02-12T01:00:13;96345.94;;;-1.50;50.98
61961;BME280;47923;42.506;24.192;2023-02-12T01:02:38;96262.53;;;-2.00;51.27
61961;BME280;47923;42.506;24.192;2023-02-12T01:05:04;96337.69;;;-1.58;51.72
61961;BME280;47923;42.506;24.192;2023-02-12T01:07:30;96047.31;;;-3.41;51.75
61961;BME280;47923;42.506;24.192;2023-02-12T01:09:55;96302.41;;;-1.74;51.69
61961;BME280;47923;42.506;24.192;2023-02-12T01:12:21;96328.41;;;-1.61;51.47
61961;BME280;47923;42.506;24.192;2023-02-12T01:14:46;96238.22;;;-1.91;51.32
61961;BME280;47923;42.506;24.192;2023-02-12T01:17:12;96248.81;;;-1.91;52.01
61961;BME280;47923;42.506;24.192;2023-02-12T01:19:37;96283.09;;;-1.64;51.66
61961;BME280;47923;42.506;24.192;2023-02-12T01:22:02;96291.81;;;-1.69;51.92
61961;BME280;47923;42.506;24.192;2023-02-12T01:24:28;96280.97;;;-1.68;51.87
61961;BME280;47923;42.506;24.192;2023-02-12T01:26:53;96290.75;;;-1.63;51.87
61961;BME280;47923;42.506;24.192;2023-02-12T01:29:19;96227.00;;;-2.14;51.77
61961;BME280;47923;42.506;24.192;2023-02-12T01:31:44;96296.09;;;-1.58;51.61
61961;BME280;47923;42.506;24.192;2023-02-12T01:34:10;96300.88;;;-1.60;51.55
61961;BME280;47923;42.506;24.192;2023-02-12T01:36:36;96308.78;;;-1.65;51.79
61961;BME280;47923;42.506;24.192;2023-02-12T01:39:03;96143.66;;;-2.69;51.79
61961;BME280;47923;42.506;24.192;2023-02-12T01:41:32;96247.16;;;-2.13;52.31
61961;BME280;47923;42.506;24.192;2023-02-12T01:44:05;96308.44;;;-1.89;52.85
61961;BME280;47923;42.506;24.192;2023-02-12T01:46:30;96079.53;;;-3.39;52.92
61961;BME280;47923;42.506;24.192;2023-02-12T01:48:56;96117.00;;;-3.10;53.34
61961;BME280;47923;42.506;24.192;2023-02-12T01:51:22;96223.94;;;-2.48;53.38
61961;BME280;47923;42.506;24.192;2023-02-12T01:53:52;96186.75;;;-2.79;53.52
61961;BME280;47923;42.506;24.192;2023-02-12T01:56:19;96123.06;;;-3.09;53.92
61961;BME280;47923;42.506;24.192;2023-02-12T01:58:46;96266.75;;;-2.09;54.04
61961;BME280;47923;42.506;24.192;2023-02-12T02:01:17;96267.81;;;-2.10;54.36
61961;BME280;47923;42.506;24.192;2023-02-12T02:03:51;96245.13;;;-2.43;54.17
61961;BME280;47923;42.506;24.192;2023-02-12T02:06:53;96273.63;;;-2.13;54.31
61961;BME280;47923;42.506;24.192;2023-02-12T02:09:20;96231.66;;;-2.41;54.46
61961;BME280;47923;42.506;24.192;2023-02-12T02:11:46;96264.59;;;-2.17;54.24
61961;BME280;47923;42.506;24.192;2023-02-12T02:14:30;96278.09;;;-2.18;54.47
61961;BME280;47923;42.506;24.192;2023-02-12T02:31:08;96267.44;;;-2.34;55.38
61961;BME280;47923;42.506;24.192;2023-02-12T02:37:03;96277.78;;;-2.27;54.49
61961;BME280;47923;42.506;24.192;2023-02-12T02:39:25;96266.63;;;-2.29;54.88
61961;BME280;47923;42.506;24.192;2023-02-12T02:42:00;96271.94;;;-2.34;54.95
61961;BME280;47923;42.506;24.192;2023-02-12T02:44:34;96272.47;;;-2.32;55.06
61961;BME280;47923;42.506;24.192;2023-02-12T02:47:03;95840.22;;;-5.09;54.83
61961;BME280;47923;42.506;24.192;2023-02-12T02:49:44;96160.63;;;-3.07;54.71
61961;BME280;47923;42.506;24.192;2023-02-12T02:52:15;96276.72;;;-2.26;54.49
61961;BME280;47923;42.506;24.192;2023-02-12T02:54:48;96288.13;;;-2.26;54.46
61961;BME280;47923;42.506;24.192;2023-02-12T02:57:29;96285.75;;;-2.22;54.38
61961;BME280;47923;42.506;24.192;2023-02-12T03:00:08;96275.97;;;-2.16;54.44
61961;BME280;47923;42.506;24.192;2023-02-12T03:02:39;96285.78;;;-2.17;54.48
61961;BME280;47923;42.506;24.192;2023-02-12T03:05:22;96175.59;;;-2.81;54.25
61961;BME280;47923;42.506;24.192;2023-02-12T03:08:00;96047.09;;;-3.71;54.32
61961;BME280;47923;42.506;24.192;2023-02-12T03:10:33;96197.06;;;-2.72;54.68
61961;BME280;47923;42.506;24.192;2023-02-12T03:13:09;96188.81;;;-2.81;54.55
61961;BME280;47923;42.506;24.192;2023-02-12T03:18:27;96292.66;;;-2.16;55.20
61961;BME280;47923;42.506;24.192;2023-02-12T03:20:56;96290.00;;;-2.16;54.70
61961;BME280;47923;42.506;24.192;2023-02-12T03:23:30;96051.63;;;-3.67;54.98
61961;BME280;47923;42.506;24.192;2023-02-12T03:26:11;96176.03;;;-2.94;55.17
61961;BME280;47923;42.506;24.192;2023-02-12T03:28:42;96289.22;;;-2.16;55.51
61961;BME280;47923;42.506;24.192;2023-02-12T03:36:55;96300.25;;;-2.30;56.51
61961;BME280;47923;42.506;24.192;2023-02-12T03:39:32;96293.34;;;-2.36;56.14
61961;BME280;47923;42.506;24.192;2023-02-12T03:42:09;96297.03;;;-2.37;56.18
61961;BME280;47923;42.506;24.192;2023-02-12T03:44:45;96299.94;;;-2.38;56.22
61961;BME280;47923;42.506;24.192;2023-02-12T03:50:10;96291.16;;;-2.44;56.59
61961;BME280;47923;42.506;24.192;2023-02-12T03:52:38;96222.34;;;-2.91;56.86
61961;BME280;47923;42.506;24.192;2023-02-12T03:55:05;96120.63;;;-3.58;56.89
61961;BME280;47923;42.506;24.192;2023-02-12T03:57:37;96305.72;;;-2.46;57.25
61961;BME280;47923;42.506;24.192;2023-02-12T04:00:11;96222.56;;;-2.98;57.09
61961;BME280;47923;42.506;24.192;2023-02-12T04:02:37;96295.09;;;-2.52;56.94
61961;BME280;47923;42.506;24.192;2023-02-12T04:05:08;96304.13;;;-2.42;56.70
61961;BME280;47923;42.506;24.192;2023-02-12T04:07:40;96293.00;;;-2.44;57.16
61961;BME280;47923;42.506;24.192;2023-02-12T04:10:06;96303.59;;;-2.44;57.30
61961;BME280;47923;42.506;24.192;2023-02-12T04:12:40;96195.16;;;-3.19;57.10
61961;BME280;47923;42.506;24.192;2023-02-12T04:15:15;96302.53;;;-2.43;57.36
61961;BME280;47923;42.506;24.192;2023-02-12T04:26:38;96293.31;;;-2.41;57.31
61961;BME280;47923;42.506;24.192;2023-02-12T04:31:57;96307.34;;;-2.35;57.23
61961;BME280;47923;42.506;24.192;2023-02-12T04:34:43;96238.84;;;-2.79;56.52
61961;BME280;47923;42.506;24.192;2023-02-12T04:37:15;96310.34;;;-2.27;56.58
61961;BME280;47923;42.506;24.192;2023-02-12T04:39:43;96292.69;;;-2.53;56.16
61961;BME280;47923;42.506;24.192;2023-02-12T04:42:10;96315.16;;;-2.18;56.33
61961;BME280;47923;42.506;24.192;2023-02-12T04:44:41;96321.25;;;-2.18;55.79
61961;BME280;47923;42.506;24.192;2023-02-12T04:47:06;96241.81;;;-2.65;56.34
61961;BME280;47923;42.506;24.192;2023-02-12T04:49:32;96320.19;;;-2.17;55.75
61961;BME280;47923;42.506;24.192;2023-02-12T04:51:57;96328.44;;;-2.08;56.42
61961;BME280;47923;42.506;24.192;2023-02-12T04:54:24;96328.16;;;-2.12;56.03
61961;BME280;47923;42.506;24.192;2023-02-12T04:56:49;96051.44;;;-3.92;55.76
61961;BME280;47923;42.506;24.192;2023-02-12T04:59:15;96329.53;;;-1.99;56.37
61961;BME280;47923;42.506;24.192;2023-02-12T05:01:41;96069.03;;;-3.71;55.73
61961;BME280;47923;42.506;24.192;2023-02-12T05:04:08;96313.09;;;-2.11;55.84
61961;BME280;47923;42.506;24.192;2023-02-12T05:06:35;96294.78;;;-2.18;55.73
61961;BME280;47923;42.506;24.192;2023-02-12T05:09:00;96274.31;;;-2.33;55.86
61961;BME280;47923;42.506;24.192;2023-02-12T05:11:26;96250.88;;;-2.56;55.77
61961;BME280;47923;42.506;24.192;2023-02-12T05:13:52;96162.00;;;-2.99;55.61
61961;BME280;47923;42.506;24.192;2023-02-12T05:16:19;96366.50;;;-1.72;55.43
61961;BME280;47923;42.506;24.192;2023-02-12T05:18:45;96355.91;;;-1.72;55.59
61961;BME280;47923;42.506;24.192;2023-02-12T05:21:10;96311.78;;;-2.04;55.48
61961;BME280;47923;42.506;24.192;2023-02-12T05:23:38;96356.75;;;-1.67;55.33
61961;BME280;47923;42.506;24.192;2023-02-12T05:26:12;96376.66;;;-1.59;55.13
61961;BME280;47923;42.506;24.192;2023-02-12T05:28:38;96367.09;;;-1.60;55.51
61961;BME280;47923;42.506;24.192;2023-02-12T05:31:06;96277.13;;;-2.44;55.77
61961;BME280;47923;42.506;24.192;2023-02-12T05:33:31;96293.75;;;-2.12;55.53
61961;BME280;47923;42.506;24.192;2023-02-12T05:36:05;96305.38;;;-2.18;55.53
61961;BME280;47923;42.506;24.192;2023-02-12T05:38:31;96388.88;;;-1.53;55.68
61961;BME280;47923;42.506;24.192;2023-02-12T05:41:04;96390.72;;;-1.53;54.98
61961;BME280;47923;42.506;24.192;2023-02-12T05:43:30;96308.34;;;-1.99;55.37
61961;BME280;47923;42.506;24.192;2023-02-12T05:46:00;96320.31;;;-1.97;55.18
61961;BME280;47923;42.506;24.192;2023-02-12T05:48:30;96397.13;;;-1.44;54.73
61961;BME280;47923;42.506;24.192;2023-02-12T05:51:07;96024.56;;;-3.84;54.63
61961;BME280;47923;42.506;24.192;2023-02-12T05:53:34;96311.56;;;-1.97;54.56
61961;BME280;47923;42.506;24.192;2023-02-12T05:56:17;96409.63;;;-1.34;54.69
61961;BME280;47923;42.506;24.192;2023-02-12T05:58:46;96415.22;;;-1.31;54.38
61961;BME280;47923;42.506;24.192;2023-02-12T06:01:17;96409.41;;;-1.23;54.10
61961;BME280;47923;42.506;24.192;2023-02-12T06:03:43;96439.38;;;-1.22;54.48
61961;BME280;47923;42.506;24.192;2023-02-12T06:06:09;96390.75;;;-1.43;54.30
61961;BME280;47923;42.506;24.192;2023-02-12T06:08:35;96419.78;;;-1.11;54.11
61961;BME280;47923;42.506;24.192;2023-02-12T06:11:02;96376.75;;;-1.33;54.31
61961;BME280;47923;42.506;24.192;2023-02-12T06:13:29;96423.28;;;-1.00;53.84
61961;BME280;47923;42.506;24.192;2023-02-12T06:15:55;96420.38;;;-0.94;53.51
61961;BME280;47923;42.506;24.192;2023-02-12T06:18:20;96431.53;;;-0.87;54.00
61961;BME280;47923;42.506;24.192;2023-02-12T06:20:46;96186.13;;;-2.38;53.56
61961;BME280;47923;42.506;24.192;2023-02-12T06:23:11;95900.81;;;-4.12;52.92
61961;BME280;47923;42.506;24.192;2023-02-12T06:25:36;96218.31;;;-2.04;53.02
61961;BME280;47923;42.506;24.192;2023-02-12T06:28:02;96236.88;;;-1.94;52.99
61961;BME280;47923;42.506;24.192;2023-02-12T06:30:28;96329.28;;;-1.35;53.04
61961;BME280;47923;42.506;24.192;2023-02-12T06:32:53;96225.75;;;-1.96;53.08
61961;BME280;47923;42.506;24.192;2023-02-12T06:35:19;96291.31;;;-1.56;52.66
61961;BME280;47923;42.506;24.192;2023-02-12T06:37:44;96435.06;;;-0.50;52.51
61961;BME280;47923;42.506;24.192;2023-02-12T06:40:10;96296.69;;;-1.30;52.49
61961;BME280;47923;42.506;24.192;2023-02-12T06:42:36;96367.84;;;-0.81;51.81
61961;BME280;47923;42.506;24.192;2023-02-12T06:45:01;96219.47;;;-1.70;52.04
61961;BME280;47923;42.506;24.192;2023-02-12T06:47:27;96187.66;;;-1.85;52.11
61961;BME280;47923;42.506;24.192;2023-02-12T06:49:53;96435.59;;;-0.23;51.56
61961;BME280;47923;42.506;24.192;2023-02-12T06:52:18;96451.53;;;-0.18;51.75
61961;BME280;47923;42.506;24.192;2023-02-12T06:54:45;96454.47;;;-0.19;51.26
61961;BME280;47923;42.506;24.192;2023-02-12T06:57:10;96385.94;;;-0.63;51.42
61961;BME280;47923;42.506;24.192;2023-02-12T06:59:36;96381.97;;;-0.66;51.67
61961;BME280;47923;42.506;24.192;2023-02-12T07:02:01;96162.75;;;-1.89;51.67
61961;BME280;47923;42.506;24.192;2023-02-12T07:04:27;96325.69;;;-0.88;51.34
61961;BME280;47923;42.506;24.192;2023-02-12T07:06:52;96451.00;;;-0.15;51.99
61961;BME280;47923;42.506;24.192;2023-02-12T07:09:18;96450.47;;;-0.17;52.08
61961;BME280;47923;42.506;24.192;2023-02-12T07:11:43;96285.31;;;-1.21;51.83
61961;BME280;47923;42.506;24.192;2023-02-12T07:14:13;96277.09;;;-1.14;52.06
61961;BME280;47923;42.506;24.192;2023-02-12T07:16:39;96346.91;;;-0.52;52.16
61961;BME280;47923;42.506;24.192;2023-02-12T07:19:05;96451.28;;;0.24;52.36
61961;BME280;47923;42.506;24.192;2023-02-12T07:21:31;96289.84;;;-0.70;52.07
61961;BME280;47923;42.506;24.192;2023-02-12T07:23:56;96454.41;;;0.37;52.00
61961;BME280;47923;42.506;24.192;2023-02-12T07:26:22;96413.00;;;0.25;51.36
61961;BME280;47923;42.506;24.192;2023-02-12T07:28:49;96450.66;;;0.68;50.97
61961;BME280;47923;42.506;24.192;2023-02-12T07:31:17;96236.22;;;-0.52;50.37
61961;BME280;47923;42.506;24.192;2023-02-12T07:33:43;96440.16;;;0.97;50.60
61961;BME280;47923;42.506;24.192;2023-02-12T07:36:11;96438.47;;;1.17;50.07
61961;BME280;47923;42.506;24.192;2023-02-12T07:38:37;96392.81;;;0.94;49.78
61961;BME280;47923;42.506;24.192;2023-02-12T07:41:08;96352.75;;;0.75;49.85
61961;BME280;47923;42.506;24.192;2023-02-12T07:43:34;96437.34;;;1.28;50.31
61961;BME280;47923;42.506;24.192;2023-02-12T07:46:12;96062.22;;;-0.89;49.58
61961;BME280;47923;42.506;24.192;2023-02-12T07:48:38;96438.84;;;1.49;49.60
61961;BME280;47923;42.506;24.192;2023-02-12T07:51:05;96317.31;;;0.80;49.71
61961;BME280;47923;42.506;24.192;2023-02-12T07:53:31;96429.94;;;1.64;49.48
61961;BME280;47923;42.506;24.192;2023-02-12T07:58:38;96304.16;;;1.04;49.03
61961;BME280;47923;42.506;24.192;2023-02-12T08:01:13;96426.13;;;1.75;49.37
61961;BME280;47923;42.506;24.192;2023-02-12T08:03:38;96289.50;;;1.06;49.42
61961;BME280;47923;42.506;24.192;2023-02-12T08:06:10;96386.09;;;1.85;49.10
61961;BME280;47923;42.506;24.192;2023-02-12T08:08:36;96423.41;;;2.43;48.65
61961;BME280;47923;42.506;24.192;2023-02-12T08:11:09;96346.53;;;1.98;48.33
61961;BME280;47923;42.506;24.192;2023-02-12T08:13:36;96419.22;;;2.61;48.01
61961;BME280;47923;42.506;24.192;2023-02-12T08:16:05;96415.91;;;2.69;47.38
61961;BME280;47923;42.506;24.192;2023-02-12T08:18:32;96415.25;;;2.83;47.42
61961;BME280;47923;42.506;24.192;2023-02-12T08:21:18;96386.44;;;3.03;46.88
61961;BME280;47923;42.506;24.192;2023-02-12T08:23:44;96372.78;;;3.43;45.60
61961;BME280;47923;42.506;24.192;2023-02-12T08:26:13;96283.47;;;3.49;44.47
61961;BME280;47923;42.506;24.192;2023-02-12T08:28:49;96398.44;;;4.55;44.16
61961;BME280;47923;42.506;24.192;2023-02-12T08:31:17;96402.41;;;5.13;42.46
61961;BME280;47923;42.506;24.192;2023-02-12T08:33:45;96394.91;;;5.01;42.42
61961;BME280;47923;42.506;24.192;2023-02-12T08:36:14;96246.34;;;4.35;41.79
61961;BME280;47923;42.506;24.192;2023-02-12T08:38:41;96399.19;;;5.74;41.19
61961;BME280;47923;42.506;24.192;2023-02-12T08:41:12;96400.59;;;6.17;40.03
61961;BME280;47923;42.506;24.192;2023-02-12T08:43:39;96327.84;;;7.24;37.11
61961;BME280;47923;42.506;24.192;2023-02-12T08:46:14;96393.53;;;8.65;35.23
61961;BME280;47923;42.506;24.192;2023-02-12T08:48:41;96403.41;;;9.49;33.73
61961;BME280;47923;42.506;24.192;2023-02-12T08:51:14;96399.28;;;10.27;32.39
61961;BME280;47923;42.506;24.192;2023-02-12T08:53:41;96397.06;;;10.29;32.04
61961;BME280;47923;42.506;24.192;2023-02-12T08:56:08;96360.81;;;9.76;31.81
61961;BME280;47923;42.506;24.192;2023-02-12T08:58:34;96415.91;;;9.24;33.14
61961;BME280;47923;42.506;24.192;2023-02-12T09:01:00;96344.81;;;8.78;33.15
61961;BME280;47923;42.506;24.192;2023-02-12T09:03:26;96410.22;;;8.96;33.12
61961;BME280;47923;42.506;24.192;2023-02-12T09:05:51;96394.22;;;8.91;33.41
61961;BME280;47923;42.506;24.192;2023-02-12T09:08:17;96383.06;;;9.52;32.75
61961;BME280;47923;42.506;24.192;2023-02-12T09:10:43;96414.13;;;9.58;32.57
61961;BME280;47923;42.506;24.192;2023-02-12T09:13:09;96378.09;;;8.74;32.39
61961;BME280;47923;42.506;24.192;2023-02-12T09:15:42;96417.25;;;8.71;34.18
61961;BME280;47923;42.506;24.192;2023-02-12T09:18:10;96425.22;;;8.68;33.96
61961;BME280;47923;42.506;24.192;2023-02-12T09:20:41;96422.38;;;9.02;33.13
61961;BME280;47923;42.506;24.192;2023-02-12T09:23:09;96427.75;;;9.32;32.74
61961;BME280;47923;42.506;24.192;2023-02-12T09:25:39;96424.53;;;10.10;32.03
61961;BME280;47923;42.506;24.192;2023-02-12T09:28:05;96324.97;;;10.08;31.02
61961;BME280;47923;42.506;24.192;2023-02-12T09:30:30;96425.53;;;10.71;31.02
61961;BME280;47923;42.506;24.192;2023-02-12T09:32:56;96435.38;;;10.88;29.96
61961;BME280;47923;42.506;24.192;2023-02-12T09:35:22;96422.31;;;10.45;30.81
61961;BME280;47923;42.506;24.192;2023-02-12T09:37:48;96340.53;;;9.07;32.13
61961;BME280;47923;42.506;24.192;2023-02-12T09:40:20;96430.56;;;9.44;32.64
61961;BME280;47923;42.506;24.192;2023-02-12T09:45:35;96425.97;;;9.15;32.75
61961;BME280;47923;42.506;24.192;2023-02-12T09:50:47;96430.00;;;9.30;32.63
61961;BME280;47923;42.506;24.192;2023-02-12T09:53:21;96354.75;;;8.86;32.78
61961;BME280;47923;42.506;24.192;2023-02-12T09:55:48;96430.75;;;9.39;32.83
61961;BME280;47923;42.506;24.192;2023-02-12T09:58:19;96430.00;;;9.80;32.13
61961;BME280;47923;42.506;24.192;2023-02-12T10:00:47;96432.78;;;9.92;31.81
61961;BME280;47923;42.506;24.192;2023-02-12T10:03:16;96239.63;;;8.75;31.64
61961;BME280;47923;42.506;24.192;2023-02-12T10:05:49;96431.56;;;10.44;31.15
61961;BME280;47923;42.506;24.192;2023-02-12T10:14:00;96426.13;;;12.59;28.43
61961;BME280;47923;42.506;24.192;2023-02-12T10:27:53;96356.81;;;11.46;28.46
61961;BME280;47923;42.506;24.192;2023-02-12T10:30:23;96364.09;;;11.45;29.89
61961;BME280;47923;42.506;24.192;2023-02-12T10:32:59;96440.34;;;12.40;28.92
61961;BME280;47923;42.506;24.192;2023-02-12T10:35:27;96444.66;;;13.00;27.00
61961;BME280;47923;42.506;24.192;2023-02-12T10:38:16;96450.53;;;13.85;27.06
61961;BME280;47923;42.506;24.192;2023-02-12T10:40:44;96451.41;;;13.38;26.99
61961;BME280;47923;42.506;24.192;2023-02-12T10:43:11;96407.63;;;13.08;27.74
61961;BME280;47923;42.506;24.192;2023-02-12T10:45:39;96436.69;;;13.08;26.90
61961;BME280;47923;42.506;24.192;2023-02-12T10:51:01;96413.19;;;10.95;29.11
61961;BME280;47923;42.506;24.192;2023-02-12T10:58:57;96468.63;;;12.27;28.73
61961;BME280;47923;42.506;24.192;2023-02-12T11:01:33;96475.94;;;12.26;28.74
61961;BME280;47923;42.506;24.192;2023-02-12T11:04:19;96466.59;;;12.80;27.58
61961;BME280;47923;42.506;24.192;2023-02-12T11:09:30;96374.50;;;11.96;28.40
61961;BME280;47923;42.506;24.192;2023-02-12T11:11:56;96434.16;;;13.15;26.38
61961;BME280;47923;42.506;24.192;2023-02-12T11:14:23;96484.22;;;14.00;26.49
61961;BME280;47923;42.506;24.192;2023-02-12T11:19:21;96480.72;;;13.17;26.88
61961;BME280;47923;42.506;24.192;2023-02-12T11:21:49;96496.97;;;13.80;26.75
61961;BME280;47923;42.506;24.192;2023-02-12T11:24:31;96489.28;;;14.36;25.34
61961;BME280;47923;42.506;24.192;2023-02-12T11:27:30;96486.19;;;14.38;24.92
61961;BME280;47923;42.506;24.192;2023-02-12T11:32:36;96475.63;;;14.33;25.30
61961;BME280;47923;42.506;24.192;2023-02-12T11:35:22;96473.22;;;14.47;24.67
61961;BME280;47923;42.506;24.192;2023-02-12T11:37:53;96488.97;;;14.03;25.43
61961;BME280;47923;42.506;24.192;2023-02-12T11:40:31;96488.97;;;14.03;25.00
61961;BME280;47923;42.506;24.192;2023-02-12T11:43:05;96393.09;;;12.85;25.50
61961;BME280;47923;42.506;24.192;2023-02-12T11:45:35;96487.34;;;13.19;26.19
61961;BME280;47923;42.506;24.192;2023-02-12T11:48:01;96131.59;;;11.08;26.05
61961;BME280;47923;42.506;24.192;2023-02-12T11:50:30;96490.16;;;11.95;27.99
61961;BME280;47923;42.506;24.192;2023-02-12T11:53:01;96350.53;;;11.05;29.25
61961;BME280;47923;42.506;24.192;2023-02-12T11:55:34;96450.13;;;11.76;29.77
61961;BME280;47923;42.506;24.192;2023-02-12T11:58:22;96481.91;;;11.79;30.22
61961;BME280;47923;42.506;24.192;2023-02-12T12:00:54;96488.31;;;10.56;32.27
61961;BME280;47923;42.506;24.192;2023-02-12T12:03:27;96375.41;;;8.74;34.71
61961;BME280;47923;42.506;24.192;2023-02-12T12:06:07;96451.41;;;8.24;36.33
61961;BME280;47923;42.506;24.192;2023-02-12T12:08:43;96231.34;;;6.53;37.36
61961;BME280;47923;42.506;24.192;2023-02-12T12:11:18;96388.44;;;7.73;37.00
61961;BME280;47923;42.506;24.192;2023-02-12T12:13:55;96465.50;;;8.03;36.45
61961;BME280;47923;42.506;24.192;2023-02-12T12:16:29;96375.41;;;7.14;37.78
61961;BME280;47923;42.506;24.192;2023-02-12T12:19:19;96290.50;;;5.99;38.81
61961;BME280;47923;42.506;24.192;2023-02-12T12:22:15;96186.84;;;4.88;40.08
61961;BME280;47923;42.506;24.192;2023-02-12T12:30:24;96466.09;;;6.16;41.22
61961;BME280;47923;42.506;24.192;2023-02-12T12:32:54;96502.25;;;6.63;41.12
61961;BME280;47923;42.506;24.192;2023-02-12T12:35:32;96493.91;;;6.42;41.97
61961;BME280;47923;42.506;24.192;2023-02-12T12:38:26;96388.78;;;5.73;41.28
61961;BME280;47923;42.506;24.192;2023-02-12T12:40:59;96496.84;;;6.32;42.20
61961;BME280;47923;42.506;24.192;2023-02-12T12:43:35;96504.59;;;6.33;41.77
61961;BME280;47923;42.506;24.192;2023-02-12T12:54:23;96500.91;;;6.29;40.95
61961;BME280;47923;42.506;24.192;2023-02-12T12:56:58;96369.16;;;5.50;40.96
61961;BME280;47923;42.506;24.192;2023-02-12T13:18:44;96509.16;;;6.33;39.96
61961;BME280;47923;42.506;24.192;2023-02-12T13:21:33;96520.28;;;6.40;40.59
61961;BME280;47923;42.506;24.192;2023-02-12T13:26:54;96361.84;;;5.42;40.94
61961;BME280;47923;42.506;24.192;2023-02-12T13:29:32;96381.38;;;5.56;41.19
61961;BME280;47923;42.506;24.192;2023-02-12T13:32:17;96471.03;;;6.00;41.54
61961;BME280;47923;42.506;24.192;2023-02-12T13:34:46;96444.25;;;5.72;41.56
61961;BME280;47923;42.506;24.192;2023-02-12T13:37:18;96434.34;;;5.37;41.84
61961;BME280;47923;42.506;24.192;2023-02-12T13:39:47;96428.28;;;5.31;42.74
61961;BME280;47923;42.506;24.192;2023-02-12T13:42:39;96408.22;;;5.28;43.06
61961;BME280;47923;42.506;24.192;2023-02-12T13:50:33;96539.00;;;5.95;43.51
61961;BME280;47923;42.506;24.192;2023-02-12T13:54:05;96543.06;;;5.93;43.77
61961;BME280;47923;42.506;24.192;2023-02-12T13:58:51;96399.47;;;4.87;44.02
61961;BME280;47923;42.506;24.192;2023-02-12T14:01:44;96557.16;;;5.85;44.41
61961;BME280;47923;42.506;24.192;2023-02-12T14:07:07;96560.25;;;5.92;43.99
61961;BME280;47923;42.506;24.192;2023-02-12T14:12:00;96437.94;;;5.05;44.20
61961;BME280;47923;42.506;24.192;2023-02-12T14:14:37;96421.75;;;5.10;43.79
61961;BME280;47923;42.506;24.192;2023-02-12T14:24:58;96539.72;;;5.32;44.53
61961;BME280;47923;42.506;24.192;2023-02-12T14:27:26;96590.66;;;5.60;44.51
61961;BME280;47923;42.506;24.192;2023-02-12T14:30:11;96602.25;;;5.55;44.61
61961;BME280;47923;42.506;24.192;2023-02-12T14:37:55;96628.88;;;5.51;44.85
61961;BME280;47923;42.506;24.192;2023-02-12T14:40:50;96634.66;;;5.59;44.60
61961;BME280;47923;42.506;24.192;2023-02-12T14:43:32;96615.34;;;5.43;45.16
61961;BME280;47923;42.506;24.192;2023-02-12T14:48:58;96630.25;;;5.49;44.71
61961;BME280;47923;42.506;24.192;2023-02-12T14:51:41;96528.03;;;4.68;45.06
61961;BME280;47923;42.506;24.192;2023-02-12T14:57:26;96664.72;;;5.09;46.26
61961;BME280;47923;42.506;24.192;2023-02-12T15:00:00;96637.34;;;4.61;46.87
61961;BME280;47923;42.506;24.192;2023-02-12T15:02:33;96676.84;;;4.69;47.54
61961;BME280;47923;42.506;24.192;2023-02-12T15:05:04;96673.16;;;4.46;47.98
61961;BME280;47923;42.506;24.192;2023-02-12T15:07:40;96677.94;;;4.30;47.92
61961;BME280;47923;42.506;24.192;2023-02-12T15:10:17;96481.50;;;2.75;48.47
61961;BME280;47923;42.506;24.192;2023-02-12T15:18:22;96714.38;;;3.78;49.56
61961;BME280;47923;42.506;24.192;2023-02-12T15:20:58;96708.91;;;3.65;48.80
61961;BME280;47923;42.506;24.192;2023-02-12T15:23:43;96714.91;;;3.51;49.49
61961;BME280;47923;42.506;24.192;2023-02-12T15:26:17;96714.56;;;3.34;50.27
61961;BME280;47923;42.506;24.192;2023-02-12T15:28:50;96636.41;;;2.60;50.26
61961;BME280;47923;42.506;24.192;2023-02-12T15:31:20;96745.69;;;3.15;50.92
61961;BME280;47923;42.506;24.192;2023-02-12T15:33:49;96729.47;;;3.06;50.91
61961;BME280;47923;42.506;24.192;2023-02-12T15:36:19;96768.81;;;2.95;51.73
61961;BME280;47923;42.506;24.192;2023-02-12T15:38:48;96735.22;;;2.84;51.67
61961;BME280;47923;42.506;24.192;2023-02-12T15:41:35;96738.22;;;2.77;51.83
61961;BME280;47923;42.506;24.192;2023-02-12T15:44:23;96748.94;;;2.67;52.58
61961;BME280;47923;42.506;24.192;2023-02-12T15:47:13;96766.28;;;2.70;51.73